AirNav   Everest Fuels
 
 1369 users online  

93MO Carr Creek Airport
Ellington, Missouri, USA

GOING TO ELLINGTON?


FAA INFORMATION EFFECTIVE 01 DECEMBER 2022

Location

FAA Identifier: 93MO
Lat/Long: 37-12-11.8100N 091-07-23.9250W
37-12.196833N 091-07.398750W
37.2032806,-91.1233125
(estimated)
Elevation: 835 ft. / 255 m (estimated)
From city: 8 miles WSW of ELLINGTON, MO
Time zone: UTC -6 (UTC -5 during Daylight Saving Time)
Zip code: 63638

Airport Operations

Airport use: Private use. Permission required prior to landing
Activation date: 01/2018
Control tower: no
ARTCC: KANSAS CITY CENTER
FSS: SAINT LOUIS FLIGHT SERVICE STATION
Attendance: UNATTND
Wind indicator: yes
Segmented circle: no

Airport Services

Runway Information

Runway 12/30

Dimensions: 4500 x 75 ft. / 1372 x 23 m
Surface: turf
RUNWAY 12  RUNWAY 30
Latitude: 37-12.388833N37-12.004833N
Longitude: 091-07.795333W091-07.002167W
Elevation: 833.0 ft.784.0 ft.
Traffic pattern: leftleft

Airport Ownership and Management from official FAA records

Ownership: Privately-owned
Owner: DONALD E. HILL
36342 STATE HWY 106
ELLINGTON, MO 63638
Phone 573-663-2677
Manager: DONALD E. HILL
36432 STATE HWY 106
ELLINGTON, MO 63638
Phone 713-545-2440

Additional Remarks

FOR CD CTC KANSAS CITY ARTCC AT 913-254-8508.

Instrument Procedures

There are no published instrument procedures at 93MO.

Some nearby airports with instrument procedures:

KMNF - Mountain View Airport (31 nm SW)
K33 - Salem Memorial Airport (34 nm NW)
M48 - Houston Memorial Airport (41 nm W)
KUNO - West Plains Regional Airport (42 nm SW)
KTVB - Cabool Memorial Airport (46 nm W)
 
Loc | Ops | Rwys | IFR | FBO | Links
Com | Nav | Svcs | Stats | Notes
Aerial photo
No photo
 
Airport distance calculator
Flying to Carr Creek Airport? Find the distance to fly.

From to 93MO

Sunrise and sunset
Times for 02-Dec-2022
 Local
(UTC-6)
 Zulu
(UTC)
Morning civil twilight06:3312:33
Sunrise07:0213:02
Sunset16:4622:46
Evening civil twilight17:1523:15

Current date and time
Zulu (UTC)  02-Dec-2022 17:40:41
Local (UTC-6)  02-Dec-2022 11:40:41
 
METAR
KUNO 
42nm SW 
021653Z AUTO 20015G24KT 10SM OVC019 11/03 A3005 RMK AO2 SLP178 T01060033
KPOF 
47nm SE 
021653Z AUTO 20019G26KT 10SM -RA OVC036 09/02 A3016 RMK AO2 PK WND 20026/1653 RAB35 SLP215 P0000 T00890022
KFAM 
48nm NE 
021656Z AUTO 18020G26KT 10SM OVC026 09/M01 A3004 RMK AO2 PK WND 19028/1632 SLP186 T00891006
TAF
NOTAMs
Click for the latest NOTAMs
NOTAMs are issued by the DoD/FAA and will open in a separate window not controlled by AirNav.

 

 
 

Would you like to see your business listed on this page?

 If your business provides an interesting product or service to pilots, flight crews, aircraft, or users of the Carr Creek Airport, you should consider listing it here.  To start the listing process, click on the button below
 
Add a business
 

Other Pages about Carr Creek Airport

Update a link
 
Copyright © AirNav, LLC. All rights reserved. Privacy Policy  Contact